createdAt,value
2023-11-18T00:01:50.653Z,102469.06
2023-11-18T00:04:17.402Z,102459.53
2023-11-18T00:06:45.132Z,102460.50
2023-11-18T00:09:14.128Z,102470.75
2023-11-18T00:11:41.288Z,102467.06
2023-11-18T00:14:08.383Z,102464.03
2023-11-18T00:16:35.618Z,102462.00
2023-11-18T00:19:02.639Z,102467.03
2023-11-18T00:21:29.058Z,102466.53
2023-11-18T00:23:56.948Z,102472.59
2023-11-18T00:26:23.322Z,102470.91
2023-11-18T00:28:49.826Z,102469.88
2023-11-18T00:31:16.295Z,102469.41
2023-11-18T00:33:42.805Z,102464.69
2023-11-18T00:36:09.716Z,102450.63
2023-11-18T00:38:36.204Z,102452.78
2023-11-18T00:41:02.669Z,102458.00
2023-11-18T00:43:29.288Z,102456.50
2023-11-18T00:45:55.827Z,102450.28
2023-11-18T00:48:22.256Z,102454.66
2023-11-18T00:50:48.680Z,102452.13
2023-11-18T00:53:15.050Z,102463.19
2023-11-18T00:55:42.368Z,102459.47
2023-11-18T00:58:09.157Z,102473.38
2023-11-18T01:00:37.301Z,102472.81
2023-11-18T01:03:04.384Z,102472.47
2023-11-18T01:05:32.618Z,102479.50
2023-11-18T01:07:59.296Z,102487.09
2023-11-18T01:10:25.769Z,102485.47
2023-11-18T01:12:52.304Z,102479.78
2023-11-18T01:15:18.702Z,102481.31
2023-11-18T01:17:45.522Z,102475.28
2023-11-18T01:20:13.490Z,102478.13
2023-11-18T01:22:40.647Z,102488.19
2023-11-18T01:25:07.792Z,102484.19
2023-11-18T01:27:35.016Z,102484.00
2023-11-18T01:30:02.082Z,102484.34
2023-11-18T01:32:30.920Z,102483.84
2023-11-18T01:34:58.032Z,102482.50
2023-11-18T01:37:25.610Z,102482.69
2023-11-18T01:39:52.216Z,102490.22
2023-11-18T01:42:18.601Z,102473.78
2023-11-18T01:44:45.208Z,102475.44
2023-11-18T01:47:13.717Z,102476.13
2023-11-18T01:49:42.003Z,102473.94
2023-11-18T01:52:09.432Z,102476.63
2023-11-18T01:54:41.472Z,102472.59
2023-11-18T01:57:10.412Z,102470.91
2023-11-18T01:59:38.962Z,102471.75
2023-11-18T02:02:05.502Z,102468.75
2023-11-18T02:04:32.109Z,102473.09
2023-11-18T02:06:59.411Z,102471.91
2023-11-18T02:09:30.118Z,102470.72
2023-11-18T02:12:17.469Z,102472.41
2023-11-18T02:14:46.131Z,102476.47
2023-11-18T02:17:15.555Z,102478.63
2023-11-18T02:19:43.555Z,102484.66
2023-11-18T02:22:12.335Z,102476.47
2023-11-18T02:24:38.891Z,102481.66
2023-11-18T02:27:12.596Z,102482.50
2023-11-18T02:29:44.841Z,102480.66
2023-11-18T02:32:37.831Z,102478.81
2023-11-18T02:35:32.145Z,102473.59
2023-11-18T02:38:01.477Z,102476.63
2023-11-18T02:40:36.462Z,102466.06
2023-11-18T02:43:06.319Z,102467.06
2023-11-18T02:45:33.603Z,102465.41
2023-11-18T02:48:00.155Z,102470.91
2023-11-18T02:50:28.462Z,102473.59
2023-11-18T02:52:55.106Z,102456.31
2023-11-18T02:55:25.633Z,102456.97
2023-11-18T02:57:52.768Z,102449.78
2023-11-18T03:00:22.724Z,102444.41
2023-11-18T03:02:51.207Z,102446.09
2023-11-18T03:05:17.788Z,102446.94
2023-11-18T03:07:50.988Z,102440.72
2023-11-18T03:10:23.960Z,102447.44
2023-11-18T03:12:54.850Z,102439.22
2023-11-18T03:15:23.194Z,102437.72
2023-11-18T03:17:51.064Z,102439.03
2023-11-18T03:20:18.494Z,102445.25
2023-11-18T03:22:48.787Z,102442.91
2023-11-18T03:25:15.597Z,102437.69
2023-11-18T03:27:42.196Z,102431.19
2023-11-18T03:30:09.884Z,102424.97
2023-11-18T03:32:37.761Z,102422.94
2023-11-18T03:35:05.512Z,102426.81
2023-11-18T03:37:32.772Z,102433.84
2023-11-18T03:39:59.251Z,102416.72
2023-11-18T03:42:25.673Z,102415.75
2023-11-18T03:44:52.088Z,102416.91
2023-11-18T03:47:18.475Z,102412.06
2023-11-18T03:49:44.910Z,102402.00
2023-11-18T03:52:11.383Z,102390.91
2023-11-18T03:54:37.744Z,102389.91
2023-11-18T03:57:04.369Z,102383.38
2023-11-18T03:59:30.827Z,102380.50
2023-11-18T04:01:57.301Z,102367.75
2023-11-18T04:04:23.764Z,102367.75
2023-11-18T04:06:50.139Z,102360.41
2023-11-18T04:09:17.136Z,102353.16
2023-11-18T04:11:45.978Z,102350.66
2023-11-18T04:14:14.169Z,102346.28
2023-11-18T04:16:40.659Z,102359.03
2023-11-18T04:19:07.527Z,102369.78
2023-11-18T04:21:34.075Z,102362.72
2023-11-18T04:24:00.447Z,102355.69
2023-11-18T04:26:26.817Z,102351.97
2023-11-18T04:28:53.574Z,102337.56
2023-11-18T04:31:20.013Z,102332.03
2023-11-18T04:33:46.529Z,102331.03
2023-11-18T04:36:14.555Z,102337.06
2023-11-18T04:38:41.006Z,102326.16
2023-11-18T04:41:07.691Z,102318.25
2023-11-18T04:43:42.382Z,102324.47
2023-11-18T04:46:12.071Z,102322.47
2023-11-18T04:48:41.702Z,102313.91
2023-11-18T04:51:09.017Z,102311.03
2023-11-18T04:53:35.545Z,102303.66
2023-11-18T04:56:02.244Z,102308.00
2023-11-18T04:58:28.645Z,102306.00
2023-11-18T05:00:55.020Z,102302.13
2023-11-18T05:03:22.480Z,102310.00
2023-11-18T05:05:48.973Z,102303.63
2023-11-18T05:08:20.625Z,102313.53
2023-11-18T05:10:48.443Z,102313.69
2023-11-18T05:13:17.452Z,102313.69
2023-11-18T05:15:47.493Z,102308.16
2023-11-18T05:18:15.837Z,102307.97
2023-11-18T05:20:43.407Z,102297.25
2023-11-18T05:23:13.196Z,102292.56
2023-11-18T05:25:46.499Z,102289.03
2023-11-18T05:28:12.992Z,102281.13
2023-11-18T05:30:44.105Z,102274.75
2023-11-18T05:33:11.814Z,102282.81
2023-11-18T05:35:38.235Z,102281.63
2023-11-18T05:38:07.118Z,102279.78
2023-11-18T05:40:33.753Z,102275.41
2023-11-18T05:43:00.278Z,102290.03
2023-11-18T05:45:32.714Z,102281.13
2023-11-18T05:47:59.171Z,102280.78
2023-11-18T05:50:26.030Z,102281.47
2023-11-18T05:52:53.548Z,102278.78
2023-11-18T05:55:19.917Z,102273.41
2023-11-18T05:57:46.568Z,102254.44
2023-11-18T06:00:20.980Z,102249.91
2023-11-18T06:02:52.724Z,102255.28
2023-11-18T06:05:19.399Z,102247.88
2023-11-18T06:07:48.343Z,102246.22
2023-11-18T06:10:14.694Z,102253.25
2023-11-18T06:12:42.048Z,102258.63
2023-11-18T06:15:10.206Z,102243.34
2023-11-18T06:17:36.721Z,102244.19
2023-11-18T06:20:07.182Z,102245.84
2023-11-18T06:22:33.658Z,102242.16
2023-11-18T06:25:00.186Z,102245.84
2023-11-18T06:27:26.694Z,102241.31
2023-11-18T06:29:55.602Z,102242.16
2023-11-18T06:32:22.317Z,102240.31
2023-11-18T06:34:50.379Z,102230.22
2023-11-18T06:37:17.915Z,102216.63
2023-11-18T06:39:46.690Z,102232.41
2023-11-18T06:42:13.206Z,102230.38
2023-11-18T06:44:39.690Z,102240.28
2023-11-18T06:47:07.663Z,102238.44
2023-11-18T06:49:38.016Z,102246.47
2023-11-18T06:52:04.784Z,102244.81
2023-11-18T06:54:34.284Z,102233.72
2023-11-18T06:57:00.904Z,102245.78
2023-11-18T06:59:27.508Z,102241.25
2023-11-18T07:01:54.539Z,102242.06
2023-11-18T07:04:21.022Z,102245.78
2023-11-18T07:06:47.445Z,102238.56
2023-11-18T07:09:18.485Z,102243.56
2023-11-18T07:11:47.730Z,102236.34
2023-11-18T07:14:15.864Z,102235.50
2023-11-18T07:16:44.053Z,102246.09
2023-11-18T07:19:21.598Z,102242.41
2023-11-18T07:21:50.333Z,102245.09
2023-11-18T07:24:18.079Z,102255.84
2023-11-18T07:26:45.324Z,102257.50
2023-11-18T07:29:12.665Z,102257.50
2023-11-18T07:31:39.127Z,102257.50
2023-11-18T07:34:06.777Z,102263.91
2023-11-18T07:36:34.202Z,102257.50
2023-11-18T07:39:04.239Z,102270.91
2023-11-18T07:41:33.666Z,102275.28
2023-11-18T07:44:01.575Z,102277.13
2023-11-18T07:46:29.745Z,102262.88
2023-11-18T07:48:56.633Z,102254.81
2023-11-18T07:51:23.970Z,102245.75
2023-11-18T07:53:51.091Z,102242.88
2023-11-18T07:56:17.933Z,102244.34
2023-11-18T07:58:48.506Z,102236.13
2023-11-18T08:01:17.375Z,102237.78
2023-11-18T08:03:45.052Z,102229.56
2023-11-18T08:06:13.018Z,102210.75
2023-11-18T08:08:39.432Z,102225.03
2023-11-18T08:11:06.747Z,102209.75
2023-11-18T08:13:33.568Z,102205.03
2023-11-18T08:16:00.107Z,102206.72
2023-11-18T08:18:28.570Z,102211.06
2023-11-18T08:20:55.000Z,102209.03
2023-11-18T08:23:21.602Z,102197.28
2023-11-18T08:25:48.056Z,102197.91
2023-11-18T08:28:14.949Z,102201.28
2023-11-18T08:30:41.444Z,102197.56
2023-11-18T08:33:10.707Z,102193.69
2023-11-18T08:35:38.029Z,102189.63
2023-11-18T08:38:05.950Z,102186.59
2023-11-18T08:40:32.314Z,102184.22
2023-11-18T08:42:59.166Z,102173.13
2023-11-18T08:45:31.130Z,102172.41
2023-11-18T08:47:58.410Z,102166.47
2023-11-18T08:50:25.999Z,102166.94
2023-11-18T08:52:58.958Z,102171.13
2023-11-18T08:55:48.845Z,102161.00
2023-11-18T08:58:22.943Z,102156.97
2023-11-18T09:00:55.554Z,102145.84
2023-11-18T09:03:35.401Z,102144.63
2023-11-18T09:06:08.231Z,102150.66
2023-11-18T09:08:37.156Z,102138.69
2023-11-18T09:11:06.435Z,102112.47
2023-11-18T09:13:35.751Z,102129.41
2023-11-18T09:16:05.135Z,102120.19
2023-11-18T09:18:34.593Z,102130.72
2023-11-18T09:21:02.454Z,102117.75
2023-11-18T09:23:29.956Z,102103.09
2023-11-18T09:25:56.639Z,102108.28
2023-11-18T09:28:30.601Z,102097.53
2023-11-18T09:30:58.506Z,102095.69
2023-11-18T09:33:26.961Z,102098.56
2023-11-18T09:35:59.438Z,102086.13
2023-11-18T09:38:30.365Z,102086.97
2023-11-18T09:41:04.243Z,102072.69
2023-11-18T09:43:37.406Z,102055.06
2023-11-18T09:46:13.921Z,102052.53
2023-11-18T09:48:48.790Z,102051.06
2023-11-18T09:51:23.315Z,102044.03
2023-11-18T09:53:53.688Z,102050.03
2023-11-18T09:56:39.125Z,102047.16
2023-11-18T09:59:17.014Z,102052.16
2023-11-18T10:01:45.574Z,102055.53
2023-11-18T10:04:13.185Z,102053.47
2023-11-18T10:06:40.651Z,102053.28
2023-11-18T10:09:16.947Z,102067.56
2023-11-18T10:11:50.348Z,102062.19
2023-11-18T10:14:17.495Z,102047.09
2023-11-18T10:16:49.721Z,102049.94
2023-11-18T10:19:18.579Z,102038.34
2023-11-18T10:21:49.762Z,102042.72
2023-11-18T10:24:20.434Z,102032.59
2023-11-18T10:26:58.011Z,102038.59
2023-11-18T10:29:30.354Z,102041.13
2023-11-18T10:32:17.336Z,102053.56
2023-11-18T10:34:44.039Z,102043.44
2023-11-18T10:37:12.083Z,102037.22
2023-11-18T10:39:38.744Z,102025.47
2023-11-18T10:42:05.525Z,102012.00
2023-11-18T10:44:32.260Z,102013.66
2023-11-18T10:47:02.632Z,102001.03
2023-11-18T10:49:30.091Z,102000.19
2023-11-18T10:51:57.956Z,101997.34
2023-11-18T10:54:27.366Z,101994.44
2023-11-18T10:56:57.763Z,101992.81
2023-11-18T10:59:24.498Z,101983.50
2023-11-18T11:01:51.565Z,101979.13
2023-11-18T11:04:21.568Z,101991.59
2023-11-18T11:06:55.248Z,101977.09
2023-11-18T11:09:28.684Z,101968.84
2023-11-18T11:11:57.092Z,101968.47
2023-11-18T11:14:36.473Z,101967.41
2023-11-18T11:17:15.080Z,101959.34
2023-11-18T11:20:13.728Z,101940.50
2023-11-18T11:23:10.020Z,101926.03
2023-11-18T11:25:45.062Z,101902.66
2023-11-18T11:28:21.717Z,101889.00
2023-11-18T11:31:04.906Z,101863.19
2023-11-18T11:33:44.132Z,101834.88
2023-11-18T11:36:17.112Z,101829.34
2023-11-18T11:38:47.858Z,101832.03
2023-11-18T11:41:20.809Z,101822.09
2023-11-18T11:43:50.520Z,101839.91
2023-11-18T11:46:24.285Z,101834.34
2023-11-18T11:48:54.273Z,101824.41
2023-11-18T11:51:31.377Z,101824.19
2023-11-18T11:54:05.365Z,101811.38
2023-11-18T11:56:48.366Z,101784.28
2023-11-18T11:59:18.053Z,101785.72
2023-11-18T12:01:48.366Z,101771.88
2023-11-18T12:04:30.090Z,101775.19
2023-11-18T12:07:05.949Z,101771.28
2023-11-18T12:09:39.506Z,101761.97
2023-11-18T12:12:13.399Z,101753.31
2023-11-18T12:14:57.582Z,101754.78
2023-11-18T12:17:26.829Z,101738.22
2023-11-18T12:19:59.957Z,101752.13
2023-11-18T12:22:41.859Z,101750.69
2023-11-18T12:25:08.590Z,101739.97
2023-11-18T12:27:41.270Z,101718.84
2023-11-18T12:30:16.833Z,101708.06
2023-11-18T12:33:24.179Z,101688.38
2023-11-18T12:35:51.198Z,101692.94
2023-11-18T12:38:24.965Z,101683.00
2023-11-18T12:41:06.170Z,101679.06
2023-11-18T12:43:51.313Z,101664.53
2023-11-18T12:46:58.799Z,101653.75
2023-11-18T12:49:26.083Z,101648.38
2023-11-18T12:51:56.003Z,101669.94
2023-11-18T12:54:30.526Z,101625.19
2023-11-18T12:56:57.285Z,101580.41
2023-11-18T12:59:24.747Z,101548.09
2023-11-18T13:01:57.596Z,101540.84
2023-11-18T13:04:28.742Z,101533.59
2023-11-18T13:06:56.363Z,101548.09
2023-11-18T13:09:27.536Z,101557.22
2023-11-18T13:11:57.274Z,101560.53
2023-11-18T13:14:26.238Z,101561.56
2023-11-18T13:16:57.331Z,101562.16
2023-11-18T13:19:30.616Z,101549.34
2023-11-18T13:22:05.551Z,101569.66
2023-11-18T13:24:32.364Z,101582.91
2023-11-18T13:27:04.711Z,101571.72
2023-11-18T13:29:32.308Z,101551.22
2023-11-18T13:32:01.465Z,101548.31
2023-11-18T13:34:29.014Z,101531.31
2023-11-18T13:36:56.034Z,101533.81
2023-11-18T13:39:23.235Z,101530.28
2023-11-18T13:41:51.453Z,101513.91
2023-11-18T13:44:39.315Z,101499.19
2023-11-18T13:47:06.757Z,101501.69
2023-11-18T13:49:35.842Z,101513.31
2023-11-18T13:52:03.335Z,101504.16
2023-11-18T13:54:32.389Z,101510.19
2023-11-18T13:57:04.380Z,101509.13
2023-11-18T13:59:31.412Z,101490.91
2023-11-18T14:01:59.740Z,101480.16
2023-11-18T14:04:28.649Z,101481.16
2023-11-18T14:07:00.209Z,101478.47
2023-11-18T14:09:27.963Z,101474.75
2023-11-18T14:11:57.859Z,101456.91
2023-11-18T14:14:26.190Z,101441.78
2023-11-18T14:16:58.833Z,101431.22
2023-11-18T14:19:31.395Z,101425.84
2023-11-18T14:21:58.536Z,101421.47
2023-11-18T14:24:28.623Z,101403.44
2023-11-18T14:26:55.646Z,101419.59
2023-11-18T14:29:22.125Z,101410.50
2023-11-18T14:31:48.722Z,101399.72
2023-11-18T14:34:15.457Z,101389.75
2023-11-18T14:36:42.682Z,101388.72
2023-11-18T14:39:18.583Z,101386.03
2023-11-18T14:41:46.773Z,101391.22
2023-11-18T14:44:13.736Z,101381.47
2023-11-18T14:46:42.135Z,101370.69
2023-11-18T14:49:08.896Z,101383.13
2023-11-18T14:51:36.860Z,101373.16
2023-11-18T14:54:03.561Z,101362.38
2023-11-18T14:56:30.590Z,101349.75
2023-11-18T14:58:57.096Z,101340.81
2023-11-18T15:01:23.828Z,101336.28
2023-11-18T15:03:50.321Z,101344.16
2023-11-18T15:06:25.979Z,101334.22
2023-11-18T15:08:53.621Z,101330.47
2023-11-18T15:11:24.335Z,101335.84
2023-11-18T15:13:54.301Z,101332.72
2023-11-18T15:16:21.169Z,101314.47
2023-11-18T15:18:48.679Z,101332.53
2023-11-18T15:21:16.391Z,101313.66
2023-11-18T15:23:43.383Z,101325.25
2023-11-18T15:26:10.736Z,101302.06
2023-11-18T15:28:37.408Z,101291.28
2023-11-18T15:31:05.112Z,101299.97
2023-11-18T15:33:32.428Z,101296.66
2023-11-18T15:35:58.945Z,101288.59
2023-11-18T15:38:25.795Z,101275.09
2023-11-18T15:40:52.416Z,101278.63
2023-11-18T15:43:18.990Z,101287.53
2023-11-18T15:45:48.255Z,101281.09
2023-11-18T15:48:15.730Z,101288.16
2023-11-18T15:50:42.674Z,101265.53
2023-11-18T15:53:09.237Z,101251.22
2023-11-18T15:55:38.798Z,101241.28
2023-11-18T15:58:05.469Z,101237.31
2023-11-18T16:00:32.796Z,101229.25
2023-11-18T16:03:02.525Z,101226.34
2023-11-18T16:05:34.329Z,101222.59
2023-11-18T16:08:02.511Z,101232.34
2023-11-18T16:10:29.108Z,101219.47
2023-11-18T16:12:58.621Z,101217.41
2023-11-18T16:15:26.886Z,101210.94
2023-11-18T16:17:54.933Z,101207.22
2023-11-18T16:20:23.460Z,101192.72
2023-11-18T16:22:51.723Z,101164.50
2023-11-18T16:25:21.485Z,101185.00
2023-11-18T16:27:49.000Z,101182.09
2023-11-18T16:30:16.283Z,101180.00
2023-11-18T16:32:44.954Z,101184.97
2023-11-18T16:35:14.909Z,101198.00
2023-11-18T16:37:43.168Z,101191.13
2023-11-18T16:40:15.119Z,101179.31
2023-11-18T16:42:45.044Z,101176.59
2023-11-18T16:45:15.398Z,101165.63
2023-11-18T16:47:43.962Z,101170.78
2023-11-18T16:50:15.492Z,101148.16
2023-11-18T16:52:42.065Z,101149.81
2023-11-18T16:55:10.098Z,101149.59
2023-11-18T16:57:37.980Z,101141.28
2023-11-18T17:00:23.418Z,101146.22
2023-11-18T17:02:59.642Z,101137.72
2023-11-18T17:05:30.492Z,101143.69
2023-11-18T17:07:57.774Z,101144.31
2023-11-18T17:10:24.729Z,101133.91
2023-11-18T17:12:52.688Z,101142.19
2023-11-18T17:15:19.761Z,101150.03
2023-11-18T17:17:47.946Z,101144.19
2023-11-18T17:20:16.710Z,101142.13
2023-11-18T17:22:43.896Z,101130.06
2023-11-18T17:25:17.085Z,101129.84
2023-11-18T17:27:45.522Z,101125.06
2023-11-18T17:30:14.315Z,101132.72
2023-11-18T17:32:44.508Z,101136.63
2023-11-18T17:35:14.717Z,101118.34
2023-11-18T17:37:41.953Z,101123.28
2023-11-18T17:40:12.424Z,101126.81
2023-11-18T17:42:40.033Z,101125.53
2023-11-18T17:45:08.044Z,101120.72
2023-11-18T17:47:43.128Z,101125.69
2023-11-18T17:50:13.216Z,101131.69
2023-11-18T17:52:45.249Z,101109.88
2023-11-18T17:55:15.977Z,101102.13
2023-11-18T17:57:44.756Z,101096.28
2023-11-18T18:00:13.760Z,101088.38
2023-11-18T18:02:41.391Z,101085.19
2023-11-18T18:05:09.153Z,101079.34
2023-11-18T18:07:35.711Z,101073.72
2023-11-18T18:10:02.301Z,101090.91
2023-11-18T18:12:28.819Z,101096.88
2023-11-18T18:14:56.748Z,101093.75
2023-11-18T18:17:23.177Z,101080.81
2023-11-18T18:19:49.594Z,101078.50
2023-11-18T18:22:16.037Z,101080.50
2023-11-18T18:24:43.103Z,101084.41
2023-11-18T18:27:09.670Z,101085.63
2023-11-18T18:29:36.212Z,101083.06
2023-11-18T18:32:03.360Z,101090.72
2023-11-18T18:34:31.502Z,101086.47
2023-11-18T18:36:57.995Z,101073.94
2023-11-18T18:39:25.436Z,101069.47
2023-11-18T18:41:51.935Z,101075.06
2023-11-18T18:44:19.248Z,101065.78
2023-11-18T18:46:45.774Z,101066.72
2023-11-18T18:49:12.487Z,101067.91
2023-11-18T18:51:39.884Z,101076.97
2023-11-18T18:54:06.380Z,101082.75
2023-11-18T18:56:32.920Z,101077.47
2023-11-18T18:58:59.465Z,101076.78
2023-11-18T19:01:27.725Z,101073.38
2023-11-18T19:03:54.435Z,101085.13
2023-11-18T19:06:21.138Z,101069.84
2023-11-18T19:08:47.581Z,101067.88
2023-11-18T19:11:14.113Z,101068.09
2023-11-18T19:13:40.750Z,101045.53
2023-11-18T19:16:08.688Z,101042.34
2023-11-18T19:18:35.179Z,101041.91
2023-11-18T19:21:01.594Z,101042.28
2023-11-18T19:23:28.088Z,101039.41
2023-11-18T19:25:54.501Z,101039.53
2023-11-18T19:28:20.952Z,101042.38
2023-11-18T19:30:47.666Z,101040.47
2023-11-18T19:33:14.161Z,101046.22
2023-11-18T19:35:40.727Z,101055.06
2023-11-18T19:38:08.124Z,101055.06
2023-11-18T19:40:34.843Z,101047.88
2023-11-18T19:43:01.515Z,101037.38
2023-11-18T19:45:28.175Z,101033.97
2023-11-18T19:47:54.704Z,101036.41
2023-11-18T19:52:53.811Z,101030.31
2023-11-18T19:55:21.855Z,101029.00
2023-11-18T19:57:48.507Z,101030.88
2023-11-18T20:00:19.213Z,101012.00
2023-11-18T20:02:46.457Z,101003.19
2023-11-18T20:05:13.921Z,101002.66
2023-11-18T20:07:40.549Z,100995.97
2023-11-18T20:10:09.879Z,100996.78
2023-11-18T20:12:36.828Z,101002.78
2023-11-18T20:15:03.696Z,101001.22
2023-11-18T20:17:33.353Z,100980.72
2023-11-18T20:20:00.963Z,100965.59
2023-11-18T20:22:27.468Z,100978.94
2023-11-18T20:24:53.829Z,100972.19
2023-11-18T20:27:20.816Z,100979.59
2023-11-18T20:29:47.276Z,100979.09
2023-11-18T20:32:13.807Z,100976.72
2023-11-18T20:34:40.443Z,100977.97
2023-11-18T20:37:07.106Z,100987.34
2023-11-18T20:39:34.752Z,100995.56
2023-11-18T20:42:01.067Z,100990.47
2023-11-18T20:44:27.544Z,100998.38
2023-11-18T20:46:54.086Z,100989.75
2023-11-18T20:49:21.640Z,100978.16
2023-11-18T20:51:48.116Z,100983.41
2023-11-18T20:54:15.160Z,100986.84
2023-11-18T20:56:41.876Z,100984.25
2023-11-18T20:59:08.466Z,100984.88
2023-11-18T21:01:34.927Z,100971.09
2023-11-18T21:04:01.526Z,100973.53
2023-11-18T21:06:28.224Z,100963.88
2023-11-18T21:08:55.897Z,100964.44
2023-11-18T21:11:24.947Z,100968.56
2023-11-18T21:13:51.510Z,100961.56
2023-11-18T21:16:17.922Z,100951.84
2023-11-18T21:18:44.580Z,100950.38
2023-11-18T21:21:12.571Z,100947.09
2023-11-18T21:23:39.797Z,100946.75
2023-11-18T21:26:06.409Z,100943.88
2023-11-18T21:28:34.223Z,100936.84
2023-11-18T21:31:01.722Z,100932.00
2023-11-18T21:33:28.758Z,100947.22
2023-11-18T21:35:55.572Z,100949.94
2023-11-18T21:38:22.047Z,100926.66
2023-11-18T21:40:48.687Z,100910.38
2023-11-18T21:43:15.170Z,100892.00
2023-11-18T21:45:43.022Z,100915.03
2023-11-18T21:48:09.760Z,100915.59
2023-11-18T21:50:36.571Z,100917.25
2023-11-18T21:53:03.778Z,100912.13
2023-11-18T21:55:30.683Z,100912.13
2023-11-18T21:57:57.120Z,100913.75
2023-11-18T22:00:25.275Z,100912.75
2023-11-18T22:02:51.932Z,100912.25
2023-11-18T22:05:18.874Z,100918.00
2023-11-18T22:07:46.709Z,100915.63
2023-11-18T22:10:18.054Z,100916.69
2023-11-18T22:12:44.831Z,100912.34
2023-11-18T22:15:14.375Z,100910.22
2023-11-18T22:17:41.104Z,100905.38
2023-11-18T22:20:09.453Z,100910.53
2023-11-18T22:22:35.964Z,100896.53
2023-11-18T22:25:02.491Z,100896.53
2023-11-18T22:27:29.991Z,100898.41
2023-11-18T22:29:56.386Z,100898.72
2023-11-18T22:32:22.973Z,100906.59
2023-11-18T22:34:49.563Z,100913.75
2023-11-18T22:37:15.994Z,100896.09
2023-11-18T22:39:43.534Z,100894.78
2023-11-18T22:42:14.202Z,100899.19
2023-11-18T22:44:46.559Z,100888.63
2023-11-18T22:47:13.770Z,100893.78
2023-11-18T22:49:41.786Z,100896.28
2023-11-18T22:52:09.232Z,100895.44
2023-11-18T22:54:36.246Z,100903.00
2023-11-18T22:57:02.761Z,100897.56
2023-11-18T22:59:29.282Z,100896.28
2023-11-18T23:01:55.811Z,100888.13
2023-11-18T23:04:22.987Z,100886.78
2023-11-18T23:06:56.089Z,100890.88
2023-11-18T23:09:22.755Z,100895.50
2023-11-18T23:11:49.244Z,100896.31
2023-11-18T23:14:15.792Z,100889.28
2023-11-18T23:16:42.255Z,100890.09
2023-11-18T23:19:09.225Z,100885.50
2023-11-18T23:21:36.786Z,100886.03
2023-11-18T23:24:03.426Z,100890.97
2023-11-18T23:26:30.689Z,100885.22
2023-11-18T23:28:57.445Z,100883.59
2023-11-18T23:31:27.130Z,100878.16
2023-11-18T23:33:54.060Z,100872.72
2023-11-18T23:36:20.862Z,100881.44
2023-11-18T23:38:47.368Z,100887.66
2023-11-18T23:41:14.656Z,100868.91
2023-11-18T23:43:42.935Z,100867.53
2023-11-18T23:46:09.544Z,100868.91
2023-11-18T23:48:38.042Z,100870.00
2023-11-18T23:51:06.147Z,100868.13
2023-11-18T23:53:33.900Z,100873.56
2023-11-18T23:56:00.565Z,100859.69
2023-11-18T23:58:27.086Z,100859.69
